Latest Weather Observations for Onslow Airport

IDW60801

Issued at 12:35 pm WST Thursday 23 October 2014 (issued every 30 minutes, with the page automatically refreshed every 10 minutes)

About weather observations | Map of weather stations | Latest weather observations for WA | Other Formats
Station Details ID: 005017 Name: ONSLOW AIRPORT Lat: -21.67 Lon: 115.11 Height: 10.5 m
Data from the previous 72 hours. | See also: Recent months at Onslow Airport
Date/Time
WST
Temp
°C
App
Temp
°C
Dew
Point
Rel
Hum
%
Delta-T
°C
Wind Press
QNH
hPa
Press
MSL
hPa
Rain
since 9 am
mm
Dir
 
Spd
km/h
Gust
km/h
Spd
kts
Gust
kts
23/12:30pm 33.8 30.7 12.2 27 12.8 SW 20 28 11 15 1013.6 1013.6 0.0
23/12:00pm 33.2 30.3 12.8 29 12.2 SSW 20 28 11 15 1013.9 1013.9 0.0
23/11:30am 32.0 28.5 12.3 30 11.7 SSW 22 32 12 17 1014.2 1014.2 0.0
23/11:00am 30.9 28.0 12.8 33 10.7 S 20 32 11 17 1014.7 1014.7 0.0
23/10:30am 30.2 26.1 12.6 34 10.4 S 26 35 14 19 1015.0 1015.0 0.0
23/10:00am 28.8 24.7 12.7 37 9.4 S 26 33 14 18 1015.3 1015.3 0.0
23/09:30am 27.5 23.2 13.1 41 8.5 S 28 37 15 20 1015.5 1015.5 0.0
23/09:00am 26.7 21.8 13.8 45 7.6 S 32 41 17 22 1015.7 1015.7 0.0
23/08:30am 25.7 20.8 14.2 49 6.8 S 33 41 18 22 1015.7 1015.7 0.0
23/08:00am 24.1 18.7 13.9 53 6.0 S 35 44 19 24 1015.6 1015.6 0.0
23/07:30am 22.9 17.5 13.9 57 5.3 S 35 44 19 24 1015.4 1015.4 0.0
23/07:00am 22.0 17.5 13.9 60 4.7 S 30 39 16 21 1015.6 1015.6 0.0
23/06:30am 21.0 16.9 13.7 63 4.2 S 28 37 15 20 1015.3 1015.3 0.0
23/06:00am 20.6 16.0 13.6 64 4.0 SSW 30 39 16 21 1015.0 1015.0 0.0
23/05:30am 20.7 16.1 13.4 63 4.2 SSW 30 39 16 21 1014.9 1014.9 0.0
23/05:00am 20.9 16.6 13.1 61 4.4 SSW 28 35 15 19 1014.7 1014.7 0.0
23/04:30am 21.1 16.7 13.0 60 4.6 SSW 28 37 15 20 1014.5 1014.5 0.0
23/04:00am 21.3 17.7 13.0 59 4.7 SSW 24 33 13 18 1014.4 1014.4 0.0
23/03:30am 21.5 17.5 12.9 58 4.9 SSW 26 33 14 18 1014.5 1014.5 0.0
23/03:00am 21.7 17.2 12.5 56 5.2 SSW 28 33 15 18 1014.5 1014.5 0.0
23/02:30am 22.1 18.0 12.6 55 5.4 SSW 26 35 14 19 1014.7 1014.7 0.0
23/02:00am 22.3 17.7 12.3 53 5.7 SSW 28 35 15 19 1014.7 1014.7 0.0
23/01:30am 22.6 18.0 12.3 52 5.8 SSW 28 33 15 18 1015.0 1015.0 0.0
23/01:00am 22.9 18.7 12.5 52 5.9 SSW 26 33 14 18 1015.1 1015.1 0.0
23/12:30am 23.3 19.5 12.3 50 6.3 SSW 24 32 13 17 1015.1 1015.1 0.0
23/12:00am 23.6 20.2 12.6 50 6.3 SW 22 30 12 16 1015.1 1015.1 0.0
 
Date/Time
WST
Temp
°C
App
Temp
°C
Dew
Point
Rel
Hum
%
Delta-T
°C
Wind Press
QNH
hPa
Press
MSL
hPa
Rain
since 9 am
mm
Dir
 
Spd
km/h
Gust
km/h
Spd
kts
Gust
kts
22/11:30pm 24.0 19.9 12.6 49 6.5 SSW 26 32 14 17 1015.3 1015.3 0.0
22/11:00pm 24.6 20.7 13.2 49 6.6 SSW 26 32 14 17 1015.5 1015.5 0.0
22/10:30pm 25.0 21.3 13.9 50 6.5 SSW 26 32 14 17 1015.8 1015.8 0.0
22/10:00pm 25.3 21.2 13.8 49 6.8 SSW 28 39 15 21 1015.6 1015.6 0.0
22/09:30pm 26.0 22.0 14.1 47 7.1 SSW 28 35 15 19 1015.6 1015.6 0.0
22/09:00pm 26.5 21.8 14.3 47 7.3 SSW 32 39 17 21 1015.3 1015.3 0.0
22/08:30pm 26.8 22.9 14.5 46 7.4 SW 28 35 15 19 1015.2 1015.2 0.0
22/08:00pm 27.3 23.7 15.3 48 7.3 SW 28 32 15 17 1015.1 1015.1 0.0
22/07:30pm 28.4 25.1 15.0 44 8.1 SW 26 35 14 19 1015.2 1015.2 0.0
22/07:00pm 29.2 25.9 15.0 42 8.7 SW 26 32 14 17 1014.8 1014.8 0.0
22/06:30pm 30.4 26.1 13.2 35 10.2 SW 28 35 15 19 1014.3 1014.3 0.0
22/06:00pm 31.8 27.1 12.1 30 11.6 SW 28 35 15 19 1014.0 1014.0 0.0
22/05:30pm 32.8 27.1 11.3 27 12.6 SW 32 39 17 21 1013.7 1013.7 0.0
22/05:00pm 34.0 28.1 10.6 24 13.6 SSW 32 41 17 22 1013.4 1013.4 0.0
22/04:30pm 34.7 28.6 10.5 23 14.1 SW 33 39 18 21 1013.3 1013.3 0.0
22/04:00pm 35.7 29.7 10.7 22 14.7 SW 33 43 18 23 1013.1 1013.1 0.0
22/03:30pm 35.5 30.9 9.8 21 14.9 SSW 24 32 13 17 1013.2 1013.2 0.0
22/03:00pm 35.5 30.6 9.8 21 14.8 SSW 26 33 14 18 1013.3 1013.3 0.0
22/02:30pm 34.9 31.3 10.7 23 14.1 SW 20 30 11 16 1013.8 1013.8 0.0
22/02:00pm 34.1 30.0 10.0 23 13.9 SW 22 33 12 18 1014.1 1014.1 0.0
22/01:30pm 33.5 30.0 10.8 25 13.2 SW 20 32 11 17 1014.5 1014.5 0.0
22/01:00pm 32.4 27.8 11.0 27 12.4 SSW 26 33 14 18 1015.1 1015.1 0.0
22/12:30pm 31.8 27.4 11.6 29 11.8 SW 26 43 14 23 1015.5 1015.5 0.0
22/12:00pm 31.7 27.6 11.5 29 11.8 SSW 24 30 13 16 1015.9 1015.9 0.0
22/11:30am 30.9 27.4 12.3 32 11.0 SSW 22 30 12 16 1016.3 1016.3 0.0
22/11:00am 30.9 27.1 11.3 30 11.3 SSW 22 28 12 15 1016.8 1016.8 0.0
22/10:30am 29.9 26.7 11.9 33 10.5 S 20 28 11 15 1017.1 1017.1 0.0
22/10:00am 28.1 24.2 12.0 36 9.3 SSW 24 30 13 16 1017.5 1017.5 0.0
22/09:30am 27.5 23.8 12.7 40 8.6 SSW 24 33 13 18 1017.7 1017.7 0.0
22/09:00am 26.9 23.9 13.6 44 7.8 SSW 22 30 12 16 1017.7 1017.7 0.0
22/08:30am 24.0 19.7 13.2 50 6.3 S 28 35 15 19 1017.6 1017.6 0.0
22/08:00am 23.7 19.8 13.3 52 6.0 S 26 33 14 18 1017.4 1017.4 0.0
22/07:30am 22.4 18.7 15.0 63 4.4 SSW 28 35 15 19 1017.5 1017.5 0.0
22/07:00am 21.0 17.7 15.1 69 3.5 SSW 26 30 14 16 1017.3 1017.3 0.0
22/06:30am 20.0 17.1 15.0 73 2.9 SSW 24 32 13 17 1016.8 1016.8 0.0
22/06:00am 19.4 16.9 15.1 76 2.5 S 22 30 12 16 1016.4 1016.4 0.0
22/05:30am 19.2 16.3 15.1 77 2.4 SSW 24 30 13 16 1016.3 1016.3 0.0
22/05:00am 19.3 17.7 15.0 76 2.5 S 17 22 9 12 1016.0 1016.0 0.0
22/04:30am 19.4 17.4 14.9 75 2.6 S 19 24 10 13 1015.9 1015.9 0.0
22/04:00am 19.6 17.4 15.0 75 2.7 S 20 26 11 14 1015.8 1015.8 0.0
22/03:30am 19.7 17.2 15.1 75 2.7 S 22 30 12 16 1015.7 1015.7 0.0
22/03:00am 20.0 17.1 15.2 74 2.8 S 24 32 13 17 1015.6 1015.6 0.0
22/02:30am 20.0 17.9 14.8 72 3.0 SSW 19 22 10 12 1015.9 1015.9 0.0
22/02:00am 20.2 18.0 14.8 71 3.2 S 20 26 11 14 1016.0 1016.0 0.0
22/01:30am 20.7 17.4 15.0 70 3.4 S 26 33 14 18 1016.0 1016.0 0.0
22/01:00am 21.0 17.3 15.1 69 3.5 SSW 28 35 15 19 1016.2 1016.2 0.0
22/12:30am 21.3 17.8 15.4 69 3.5 SSW 28 33 15 18 1016.3 1016.3 0.0
22/12:00am 21.7 18.7 15.8 69 3.5 SSW 26 35 14 19 1016.3 1016.3 0.0
 
Date/Time
WST
Temp
°C
App
Temp
°C
Dew
Point
Rel
Hum
%
Delta-T
°C
Wind Press
QNH
hPa
Press
MSL
hPa
Rain
since 9 am
mm
Dir
 
Spd
km/h
Gust
km/h
Spd
kts
Gust
kts
21/11:30pm 22.2 19.1 16.5 70 3.5 SSW 28 37 15 20 1016.7 1016.7 0.0
21/11:00pm 22.6 19.4 16.4 68 3.8 SW 28 35 15 19 1017.0 1017.0 0.0
21/10:30pm 23.3 20.5 16.4 65 4.2 SW 26 32 14 17 1017.3 1017.3 0.0
21/10:00pm 23.6 21.5 16.1 62 4.5 SW 22 26 12 14 1017.1 1017.1 0.0
21/09:30pm 23.5 23.2 18.2 72 3.3 WSW 17 20 9 11 1017.1 1017.1 0.0
21/09:00pm 23.6 23.0 17.6 69 3.7 W 17 20 9 11 1017.1 1017.1 0.0
21/08:30pm 23.9 23.1 17.2 66 4.1 W 17 22 9 12 1016.9 1016.9 0.0
21/08:00pm 24.0 23.2 18.0 69 3.8 W 19 24 10 13 1016.7 1016.7 0.0
21/07:30pm 24.1 22.7 16.9 64 4.4 W 20 24 11 13 1016.6 1016.6 0.0
21/07:00pm 24.2 22.5 17.2 65 4.3 W 22 28 12 15 1016.4 1016.4 0.0
21/06:30pm 24.3 22.9 18.0 68 4.0 WNW 22 28 12 15 1016.1 1016.1 0.0
21/06:00pm 24.9 22.7 18.8 69 3.9 WNW 28 33 15 18 1015.6 1015.6 0.0
21/05:30pm 25.7 24.1 19.1 67 4.2 WNW 26 33 14 18 1015.5 1015.5 0.0
21/05:00pm 25.8 23.7 19.0 66 4.4 WNW 28 35 15 19 1015.2 1015.2 0.0
21/04:30pm 26.6 23.6 16.8 55 6.1 WNW 28 33 15 18 1015.2 1015.2 0.0
21/04:00pm 27.8 25.0 16.4 50 7.1 WNW 26 32 14 17 1015.3 1015.3 0.0
21/03:30pm 28.5 24.3 14.7 43 8.4 WNW 30 35 16 19 1015.1 1015.1 0.0
21/03:00pm 29.3 25.3 13.1 37 9.6 WNW 26 33 14 18 1015.0 1015.0 0.0
21/02:30pm 28.9 23.9 11.0 33 10.2 WNW 28 35 15 19 1015.3 1015.3 0.0
21/02:00pm 28.2 23.7 15.5 46 7.8 WNW 33 39 18 21 1015.7 1015.7 0.0
21/01:30pm 29.2 26.2 18.6 52 6.8 WNW 32 37 17 20 1015.9 1015.9 0.0
21/01:00pm 28.0 25.2 17.2 52 6.8 WNW 28 32 15 17 1016.1 1016.1 0.0
21/12:30pm 27.6 24.3 16.9 52 6.7 WNW 30 33 16 18 1016.5 1016.5 0.0
21/12:00pm 28.0 24.8 16.3 49 7.2 WNW 28 33 15 18 1016.9 1016.9 0.0
21/11:30am 28.3 25.1 14.2 42 8.5 WNW 24 32 13 17 1017.0 1017.0 0.0
21/11:00am 28.1 25.1 14.7 44 8.1 WNW 24 30 13 16 1017.4 1017.4 0.0
21/10:30am 29.9 29.3 12.3 33 10.3 WSW 7 20 4 11 1017.6 1017.6 0.0
21/10:00am 29.1 28.2 11.2 33 10.3 SSE 7 11 4 6 1017.8 1017.8 0.0
21/09:30am 27.3 26.1 11.7 37 9.0 SSE 9 15 5 8 1017.9 1017.9 0.0
21/09:00am 25.6 23.9 12.4 43 7.6 S 13 19 7 10 1018.0 1018.0 0.0
21/08:30am 23.9 21.8 12.5 49 6.5 SSW 15 20 8 11 1018.0 1018.0 0.0
21/08:00am 23.0 20.4 13.2 54 5.6 SSW 19 22 10 12 1017.9 1017.9 0.0
21/07:30am 21.5 18.5 13.7 61 4.5 SSW 22 28 12 15 1017.7 1017.7 0.0
21/07:00am 20.0 17.4 13.9 68 3.5 SSW 20 30 11 16 1017.6 1017.6 0.0
21/06:30am 18.7 16.2 14.0 74 2.7 SW 20 26 11 14 1017.4 1017.4 0.0
21/06:00am 18.0 15.0 13.7 76 2.4 SW 22 26 12 14 1017.0 1017.0 0.0
21/05:30am 18.0 15.3 13.5 75 2.5 SW 20 26 11 14 1016.8 1016.8 0.0
21/05:00am 18.2 15.4 13.3 73 2.8 SW 20 24 11 13 1016.6 1016.6 0.0
21/04:30am 18.2 15.6 13.3 73 2.8 SW 19 22 10 12 1016.6 1016.6 0.0
21/04:00am 18.4 15.7 13.0 71 3.0 SW 19 22 10 12 1016.6 1016.6 0.0
21/03:30am 18.7 16.1 13.1 70 3.2 WSW 19 24 10 13 1016.5 1016.5 0.0
21/03:00am 19.0 16.5 13.4 70 3.2 WSW 19 24 10 13 1016.4 1016.4 0.0
21/02:30am 19.3 16.7 13.7 70 3.2 SW 20 26 11 14 1016.1 1016.1 0.0
21/02:00am 19.5 17.1 13.9 70 3.2 WSW 19 24 10 13 1016.3 1016.3 0.0
21/01:30am 19.3 18.1 13.9 71 3.1 WSW 13 19 7 10 1016.4 1016.4 0.0
21/01:00am 19.4 17.8 14.0 71 3.1 WSW 15 17 8 9 1016.5 1016.5 0.0
21/12:30am 19.9 18.5 14.5 71 3.1 WSW 15 20 8 11 1016.7 1016.7 0.0
21/12:00am 20.5 19.4 15.3 72 3.1 WSW 15 20 8 11 1016.8 1016.8 0.0
 
Date/Time
WST
Temp
°C
App
Temp
°C
Dew
Point
Rel
Hum
%
Delta-T
°C
Wind Press
QNH
hPa
Press
MSL
hPa
Rain
since 9 am
mm
Dir
 
Spd
km/h
Gust
km/h
Spd
kts
Gust
kts
20/11:30pm 20.7 19.4 15.7 73 3.0 WSW 17 22 9 12 1017.2 1017.2 0.0
20/11:00pm 21.3 19.6 15.8 71 3.3 WSW 19 24 10 13 1017.2 1017.2 0.0
20/10:30pm 21.6 19.9 14.7 65 4.1 W 17 22 9 12 1017.2 1017.2 0.0
20/10:00pm 21.7 19.7 13.9 61 4.5 W 17 20 9 11 1017.1 1017.1 0.0
20/09:30pm 22.5 20.4 14.6 61 4.7 W 19 26 10 14 1017.1 1017.1 0.0
20/09:00pm 22.8 20.8 15.4 63 4.4 W 20 26 11 14 1016.8 1016.8 0.0
20/08:30pm 22.9 21.6 16.7 68 3.8 W 19 24 10 13 1016.5 1016.5 0.0
20/08:00pm 23.4 22.2 17.6 70 3.6 W 20 28 11 15 1016.3 1016.3 0.0
20/07:30pm 23.5 21.7 17.9 71 3.5 W 24 33 13 18 1015.9 1015.9 0.0
20/07:00pm 23.3 20.7 17.7 71 3.5 W 28 35 15 19 1015.3 1015.3 0.0
20/06:30pm 23.5 20.0 17.5 69 3.7 W 32 39 17 21 1014.9 1014.9 0.0
20/06:00pm 24.0 20.2 17.3 66 4.2 W 33 44 18 24 1014.6 1014.6 0.0
20/05:30pm 24.8 20.8 17.5 64 4.6 W 35 44 19 24 1014.3 1014.3 0.0
20/05:00pm 25.2 19.9 16.3 57 5.5 W 39 46 21 25 1014.0 1014.0 0.0
20/04:30pm 25.9 20.1 15.9 54 6.1 W 41 50 22 27 1013.9 1013.9 0.0
20/04:00pm 28.5 21.1 11.1 34 9.9 W 41 50 22 27 1013.8 1013.8 0.0
20/03:30pm 29.1 22.2 11.6 33 10.1 W 39 50 21 27 1013.8 1013.8 0.0
20/03:00pm 28.4 21.7 12.3 37 9.4 W 39 48 21 26 1014.1 1014.1 0.0
20/02:30pm 27.3 21.9 15.0 47 7.4 W 37 46 20 25 1014.3 1014.3 0.0
20/02:00pm 26.9 22.0 15.3 49 7.0 W 35 41 19 22 1014.7 1014.7 0.0
20/01:30pm 28.4 24.2 14.6 43 8.3 W 30 37 16 20 1014.9 1014.9 0.0
20/01:00pm 28.3 24.2 12.6 38 9.2 WNW 26 33 14 18 1015.3 1015.3 0.0

Other Formats:

Comma delimited format used in spreadsheet applications
http://www.bom.gov.au/fwo/IDW60801/IDW60801.95305.axf

JavaScript Object Notation format (JSON) in row-major order
http://www.bom.gov.au/fwo/IDW60801/IDW60801.95305.json